createdAt,value
2022-10-31T00:00:34.661Z,12.25
2022-10-31T00:03:15.262Z,12.02
2022-10-31T00:05:44.281Z,12.14
2022-10-31T00:08:11.264Z,12.03
2022-10-31T00:10:39.968Z,12.01
2022-10-31T00:13:07.608Z,12.64
2022-10-31T00:15:39.635Z,12.33
2022-10-31T00:18:08.117Z,12.68
2022-10-31T00:20:35.236Z,12.39
2022-10-31T00:23:23.607Z,12.30
2022-10-31T00:26:05.389Z,11.72
2022-10-31T00:28:33.233Z,11.55
2022-10-31T00:31:04.692Z,11.90
2022-10-31T00:33:33.812Z,11.95
2022-10-31T00:36:00.789Z,11.29
2022-10-31T00:38:47.664Z,12.02
2022-10-31T00:41:49.608Z,12.02
2022-10-31T00:44:30.190Z,11.86
2022-10-31T00:46:57.060Z,11.93
2022-10-31T00:49:23.984Z,11.71
2022-10-31T00:51:51.026Z,11.85
2022-10-31T00:54:38.599Z,11.37
2022-10-31T00:57:39.606Z,11.71
2022-10-31T01:00:20.320Z,11.67
2022-10-31T01:03:07.641Z,11.62
2022-10-31T01:06:06.820Z,11.87
2022-10-31T01:08:35.050Z,11.86
2022-10-31T01:11:13.297Z,11.91
2022-10-31T01:13:41.352Z,11.62
2022-10-31T01:16:11.459Z,12.06
2022-10-31T01:18:38.894Z,11.62
2022-10-31T01:21:09.309Z,12.05
2022-10-31T01:23:37.339Z,12.02
2022-10-31T01:26:11.292Z,11.99
2022-10-31T01:28:48.422Z,11.90
2022-10-31T01:31:17.137Z,11.68
2022-10-31T01:34:04.632Z,11.27
2022-10-31T01:36:47.922Z,11.52
2022-10-31T01:39:16.303Z,10.76
2022-10-31T01:42:07.644Z,11.84
2022-10-31T01:44:48.044Z,11.74
2022-10-31T01:47:20.386Z,11.60
2022-10-31T01:49:52.163Z,11.64
2022-10-31T01:52:31.872Z,11.66
2022-10-31T01:55:40.682Z,11.33
2022-10-31T01:58:15.821Z,11.22
2022-10-31T02:00:49.546Z,11.57
2022-10-31T02:03:17.839Z,11.57
2022-10-31T02:05:45.070Z,11.14
2022-10-31T02:08:24.279Z,11.41
2022-10-31T02:10:51.314Z,11.37
2022-10-31T02:13:39.980Z,10.83
2022-10-31T02:16:40.648Z,11.44
2022-10-31T02:19:42.070Z,11.37
2022-10-31T02:22:50.413Z,11.48
2022-10-31T02:25:52.239Z,11.30
2022-10-31T02:28:32.331Z,11.46
2022-10-31T02:31:05.887Z,11.49
2022-10-31T02:33:46.495Z,11.51
2022-10-31T02:36:18.152Z,11.50
2022-10-31T02:39:27.683Z,11.42
2022-10-31T02:42:35.701Z,11.37
2022-10-31T02:45:39.657Z,11.36
2022-10-31T02:48:25.734Z,11.24
2022-10-31T02:50:59.428Z,11.00
2022-10-31T02:53:50.720Z,11.52
2022-10-31T02:56:31.402Z,11.41
2022-10-31T02:59:04.274Z,11.41
2022-10-31T03:01:54.634Z,11.17
2022-10-31T03:04:38.952Z,11.01
2022-10-31T03:07:43.719Z,11.30
2022-10-31T03:10:27.213Z,11.21
2022-10-31T03:16:51.722Z,11.18
2022-10-31T03:19:46.153Z,11.22
2022-10-31T03:22:26.848Z,10.94
2022-10-31T03:24:56.844Z,11.03
2022-10-31T03:27:27.343Z,11.13
2022-10-31T03:29:58.615Z,10.19
2022-10-31T03:32:31.802Z,11.21
2022-10-31T03:35:02.712Z,11.24
2022-10-31T03:37:33.413Z,11.21
2022-10-31T03:40:03.016Z,11.18
2022-10-31T03:42:55.751Z,11.10
2022-10-31T03:46:00.739Z,11.18
2022-10-31T03:48:41.224Z,11.19
2022-10-31T03:51:14.596Z,11.18
2022-10-31T03:54:15.718Z,11.13
2022-10-31T03:57:01.348Z,10.58
2022-10-31T03:59:42.197Z,10.67
2022-10-31T04:02:32.768Z,10.92
2022-10-31T04:05:16.494Z,11.05
2022-10-31T04:07:48.092Z,10.34
2022-10-31T04:10:18.145Z,10.84
2022-10-31T04:12:53.357Z,11.18
2022-10-31T04:15:24.828Z,11.15
2022-10-31T04:17:56.286Z,11.21
2022-10-31T04:20:41.495Z,11.22
2022-10-31T04:23:29.747Z,11.01
2022-10-31T04:25:57.453Z,10.94
2022-10-31T04:28:24.502Z,10.14
2022-10-31T04:30:52.345Z,11.04
2022-10-31T04:33:20.202Z,11.08
2022-10-31T04:35:48.320Z,10.90
2022-10-31T04:38:15.612Z,10.65
2022-10-31T04:41:03.773Z,10.53
2022-10-31T04:44:28.784Z,10.66
2022-10-31T04:47:09.429Z,10.65
2022-10-31T04:49:37.016Z,10.51
2022-10-31T04:52:04.135Z,10.68
2022-10-31T04:54:51.752Z,10.90
2022-10-31T04:58:10.821Z,10.96
2022-10-31T05:00:55.965Z,11.17
2022-10-31T05:03:23.436Z,10.92
2022-10-31T05:05:51.211Z,10.80
2022-10-31T05:08:18.304Z,10.96
2022-10-31T05:10:46.359Z,10.76
2022-10-31T05:13:13.649Z,10.93
2022-10-31T05:15:43.682Z,10.52
2022-10-31T05:18:29.319Z,10.99
2022-10-31T05:21:15.017Z,10.57
2022-10-31T05:23:47.650Z,10.86
2022-10-31T05:26:16.005Z,10.85
2022-10-31T05:28:43.366Z,10.90
2022-10-31T05:31:11.612Z,10.99
2022-10-31T05:33:38.534Z,11.04
2022-10-31T05:36:24.160Z,11.09
2022-10-31T05:38:58.128Z,10.78
2022-10-31T05:41:48.811Z,11.13
2022-10-31T05:44:53.760Z,11.05
2022-10-31T05:48:14.828Z,11.12
2022-10-31T05:51:23.360Z,11.15
2022-10-31T05:54:14.872Z,10.81
2022-10-31T05:56:56.332Z,10.80
2022-10-31T05:59:23.417Z,10.90
2022-10-31T06:02:10.946Z,11.04
2022-10-31T06:05:14.628Z,11.12
2022-10-31T06:08:02.336Z,10.22
2022-10-31T06:10:45.446Z,11.10
2022-10-31T06:13:15.202Z,10.99
2022-10-31T06:15:48.575Z,11.38
2022-10-31T06:18:20.577Z,11.33
2022-10-31T06:20:50.184Z,11.22
2022-10-31T06:23:17.258Z,11.36
2022-10-31T06:25:50.831Z,11.44
2022-10-31T06:28:18.232Z,11.75
2022-10-31T06:31:00.412Z,11.57
2022-10-31T06:33:27.686Z,11.08
2022-10-31T06:35:57.342Z,11.40
2022-10-31T06:38:27.904Z,11.71
2022-10-31T06:41:03.024Z,11.90
2022-10-31T06:43:57.107Z,11.95
2022-10-31T06:46:57.472Z,11.96
2022-10-31T06:50:04.832Z,12.29
2022-10-31T06:53:12.044Z,12.49
2022-10-31T06:55:53.560Z,12.86
2022-10-31T06:58:20.547Z,12.64
2022-10-31T07:00:49.517Z,12.88
2022-10-31T07:03:18.896Z,13.67
2022-10-31T07:05:46.234Z,13.64
2022-10-31T07:08:15.068Z,13.64
2022-10-31T07:10:43.832Z,14.25
2022-10-31T07:13:15.489Z,14.12
2022-10-31T07:15:50.200Z,13.46
2022-10-31T07:18:17.400Z,13.13
2022-10-31T07:20:44.527Z,12.93
2022-10-31T07:23:12.196Z,13.79
2022-10-31T07:25:42.924Z,13.80
2022-10-31T07:28:15.896Z,13.96
2022-10-31T07:30:51.767Z,14.26
2022-10-31T07:33:20.904Z,14.23
2022-10-31T07:36:08.330Z,14.62
2022-10-31T07:38:35.366Z,14.62
2022-10-31T07:41:17.897Z,14.37
2022-10-31T07:44:18.827Z,14.29
2022-10-31T07:47:17.462Z,14.14
2022-10-31T07:50:02.992Z,14.61
2022-10-31T07:53:20.902Z,15.05
2022-10-31T07:56:19.543Z,15.67
2022-10-31T07:58:46.650Z,16.10
2022-10-31T08:01:14.659Z,15.53
2022-10-31T08:03:49.096Z,15.59
2022-10-31T08:06:35.984Z,16.13
2022-10-31T08:09:23.310Z,16.12
2022-10-31T08:11:50.720Z,15.40
2022-10-31T08:14:20.729Z,16.15
2022-10-31T08:16:48.179Z,16.29
2022-10-31T08:19:15.477Z,15.59
2022-10-31T08:21:43.890Z,16.19
2022-10-31T08:24:11.515Z,16.75
2022-10-31T08:26:39.966Z,16.81
2022-10-31T08:29:10.060Z,16.50
2022-10-31T08:31:42.591Z,16.34
2022-10-31T08:34:28.672Z,16.47
2022-10-31T08:37:28.033Z,17.28
2022-10-31T08:39:56.030Z,17.85
2022-10-31T08:42:42.888Z,16.50
2022-10-31T08:45:44.941Z,16.73
2022-10-31T08:48:53.862Z,16.61
2022-10-31T08:51:43.406Z,16.11
2022-10-31T08:54:30.905Z,16.67
2022-10-31T08:57:46.485Z,16.85
2022-10-31T09:00:14.177Z,17.46
2022-10-31T09:03:18.430Z,17.95
2022-10-31T09:05:46.853Z,17.50
2022-10-31T09:08:16.705Z,18.22
2022-10-31T09:10:46.475Z,18.71
2022-10-31T09:13:41.208Z,19.25
2022-10-31T09:16:39.924Z,18.56
2022-10-31T09:19:13.601Z,18.51
2022-10-31T09:21:45.797Z,18.02
2022-10-31T09:24:12.941Z,18.86
2022-10-31T09:26:42.347Z,18.71
2022-10-31T09:29:23.937Z,18.49
2022-10-31T09:32:16.957Z,19.30
2022-10-31T09:35:20.379Z,19.75
2022-10-31T09:38:16.333Z,20.06
2022-10-31T09:40:47.710Z,20.27
2022-10-31T09:43:49.974Z,20.23
2022-10-31T09:46:30.559Z,20.45
2022-10-31T09:49:23.012Z,20.28
2022-10-31T09:52:03.433Z,20.15
2022-10-31T09:55:08.904Z,20.91
2022-10-31T09:58:09.907Z,19.72
2022-10-31T10:00:50.679Z,19.77
2022-10-31T10:03:36.933Z,19.42
2022-10-31T10:06:28.554Z,19.30
2022-10-31T10:09:15.785Z,19.33
2022-10-31T10:12:37.550Z,19.64
2022-10-31T10:15:36.015Z,19.02
2022-10-31T10:18:48.372Z,19.23
2022-10-31T10:21:24.832Z,19.67
2022-10-31T10:24:24.964Z,19.29
2022-10-31T10:27:27.158Z,19.40
2022-10-31T10:29:59.550Z,19.78
2022-10-31T10:33:07.963Z,19.63
2022-10-31T10:35:52.010Z,20.81
2022-10-31T10:38:35.474Z,20.57
2022-10-31T10:41:35.059Z,20.19
2022-10-31T10:44:16.747Z,20.22
2022-10-31T10:47:02.309Z,20.50
2022-10-31T10:49:44.302Z,20.28
2022-10-31T10:52:53.034Z,20.35
2022-10-31T10:56:01.070Z,21.14
2022-10-31T10:58:43.664Z,21.03
2022-10-31T11:04:00.992Z,22.13
2022-10-31T11:07:14.969Z,22.43
2022-10-31T11:10:06.086Z,21.39
2022-10-31T11:12:35.043Z,21.39
2022-10-31T11:15:17.651Z,21.64
2022-10-31T11:17:50.713Z,21.05
2022-10-31T11:20:19.109Z,21.77
2022-10-31T11:23:20.031Z,21.28
2022-10-31T11:26:03.122Z,21.17
2022-10-31T11:28:33.339Z,21.05
2022-10-31T11:31:23.016Z,21.18
2022-10-31T11:34:52.989Z,21.21
2022-10-31T11:37:36.628Z,21.38
2022-10-31T11:40:37.038Z,21.43
2022-10-31T11:43:19.424Z,21.35
2022-10-31T11:45:46.999Z,21.40
2022-10-31T11:48:37.014Z,21.34
2022-10-31T11:51:41.071Z,21.32
2022-10-31T11:54:38.216Z,21.47
2022-10-31T11:57:33.343Z,21.39
2022-10-31T12:00:04.543Z,21.69
2022-10-31T12:02:39.206Z,21.32
2022-10-31T12:05:19.059Z,21.74
2022-10-31T12:07:46.056Z,21.97
2022-10-31T12:10:14.095Z,22.25
2022-10-31T12:13:18.812Z,22.68
2022-10-31T12:16:34.030Z,22.48
2022-10-31T12:19:23.821Z,22.18
2022-10-31T12:22:06.009Z,22.28
2022-10-31T12:25:09.045Z,22.35
2022-10-31T12:27:39.514Z,22.22
2022-10-31T12:30:28.541Z,21.78
2022-10-31T12:33:28.095Z,22.04
2022-10-31T12:36:42.916Z,21.87
2022-10-31T12:39:14.077Z,22.09
2022-10-31T12:42:19.077Z,22.15
2022-10-31T12:45:21.757Z,22.19
2022-10-31T12:48:15.125Z,22.15
2022-10-31T12:52:12.037Z,22.32
2022-10-31T12:55:13.069Z,22.49
2022-10-31T12:58:00.028Z,22.05
2022-10-31T13:00:30.378Z,22.34
2022-10-31T13:03:00.607Z,21.79
2022-10-31T13:05:47.039Z,22.18
2022-10-31T13:08:41.737Z,22.03
2022-10-31T13:11:23.440Z,22.19
2022-10-31T13:14:07.155Z,22.43
2022-10-31T13:16:39.710Z,22.34
2022-10-31T13:19:46.074Z,22.59
2022-10-31T13:22:47.119Z,22.51
2022-10-31T13:25:34.592Z,22.11
2022-10-31T13:28:11.262Z,22.38
2022-10-31T13:30:59.128Z,21.98
2022-10-31T13:34:02.055Z,22.46
2022-10-31T13:37:09.216Z,22.63
2022-10-31T13:40:35.542Z,22.65
2022-10-31T13:43:15.504Z,22.54
2022-10-31T13:45:51.850Z,22.10
2022-10-31T13:48:21.144Z,22.54
2022-10-31T13:51:15.501Z,22.56
2022-10-31T13:54:34.057Z,22.73
2022-10-31T13:57:43.002Z,22.60
2022-10-31T14:00:22.333Z,22.65
2022-10-31T14:02:52.563Z,22.15
2022-10-31T14:05:44.240Z,22.08
2022-10-31T14:08:25.493Z,22.18
2022-10-31T14:10:55.156Z,22.57
2022-10-31T14:13:24.590Z,22.45
2022-10-31T14:15:58.102Z,22.21
2022-10-31T14:18:39.392Z,22.54
2022-10-31T14:21:25.207Z,22.54
2022-10-31T14:23:54.986Z,22.08
2022-10-31T14:26:29.395Z,22.49
2022-10-31T14:29:05.666Z,22.37
2022-10-31T14:31:59.435Z,22.13
2022-10-31T14:35:05.170Z,22.41
2022-10-31T14:38:15.255Z,22.38
2022-10-31T14:41:33.032Z,22.56
2022-10-31T14:44:28.269Z,22.09
2022-10-31T14:47:36.128Z,22.25
2022-10-31T14:50:25.813Z,22.05
2022-10-31T14:53:16.308Z,21.98
2022-10-31T14:56:11.342Z,21.81
2022-10-31T14:58:44.083Z,21.90
2022-10-31T15:01:29.758Z,21.86
2022-10-31T15:04:25.658Z,21.81
2022-10-31T15:06:59.679Z,21.80
2022-10-31T15:09:36.524Z,21.64
2022-10-31T15:12:25.617Z,21.60
2022-10-31T15:14:53.341Z,21.19
2022-10-31T15:17:22.996Z,21.10
2022-10-31T15:20:10.208Z,21.26
2022-10-31T15:22:51.394Z,21.11
2022-10-31T15:25:24.404Z,21.18
2022-10-31T15:28:11.179Z,20.65
2022-10-31T15:31:04.197Z,20.65
2022-10-31T15:33:43.929Z,20.69
2022-10-31T15:36:24.043Z,20.04
2022-10-31T15:39:15.184Z,20.29
2022-10-31T15:42:16.205Z,19.92
2022-10-31T15:45:31.239Z,20.31
2022-10-31T15:48:20.421Z,20.30
2022-10-31T15:50:56.110Z,20.28
2022-10-31T15:53:52.322Z,19.97
2022-10-31T15:56:33.525Z,19.41
2022-10-31T15:59:03.413Z,19.78
2022-10-31T16:01:35.013Z,19.47
2022-10-31T16:04:22.714Z,19.67
2022-10-31T16:07:16.393Z,19.59
2022-10-31T16:10:01.089Z,19.39
2022-10-31T16:12:38.075Z,19.04
2022-10-31T16:15:08.640Z,18.89
2022-10-31T16:17:36.214Z,18.67
2022-10-31T16:20:07.559Z,18.51
2022-10-31T16:22:38.320Z,18.20
2022-10-31T16:25:39.814Z,17.88
2022-10-31T16:28:28.301Z,17.97
2022-10-31T16:31:01.105Z,17.66
2022-10-31T16:33:36.980Z,18.04
2022-10-31T16:36:53.242Z,18.06
2022-10-31T16:39:54.325Z,18.03
2022-10-31T16:42:55.781Z,17.97
2022-10-31T16:45:25.426Z,17.98
2022-10-31T16:48:22.233Z,18.25
2022-10-31T16:51:23.234Z,17.60
2022-10-31T16:54:24.204Z,17.67
2022-10-31T16:57:06.746Z,17.54
2022-10-31T16:59:35.452Z,17.20
2022-10-31T17:02:04.344Z,17.69
2022-10-31T17:04:40.945Z,16.76
2022-10-31T17:07:08.430Z,17.89
2022-10-31T17:09:35.938Z,17.16
2022-10-31T17:12:07.917Z,16.82
2022-10-31T17:14:37.126Z,17.55
2022-10-31T17:17:04.482Z,16.90
2022-10-31T17:19:31.725Z,17.22
2022-10-31T17:21:58.663Z,16.86
2022-10-31T17:24:26.122Z,16.41
2022-10-31T17:26:53.215Z,16.70
2022-10-31T17:29:21.185Z,16.34
2022-10-31T17:32:09.401Z,16.89
2022-10-31T17:34:49.795Z,16.59
2022-10-31T17:37:17.077Z,17.02
2022-10-31T17:40:04.250Z,16.98
2022-10-31T17:42:53.617Z,16.95
2022-10-31T17:45:22.232Z,16.59
2022-10-31T17:47:51.403Z,17.16
2022-10-31T17:50:21.839Z,16.53
2022-10-31T17:53:09.253Z,16.51
2022-10-31T17:56:14.600Z,16.48
2022-10-31T17:58:58.262Z,16.41
2022-10-31T18:01:25.794Z,16.23
2022-10-31T18:03:53.031Z,16.43
2022-10-31T18:06:20.393Z,16.26
2022-10-31T18:08:47.537Z,16.13
2022-10-31T18:11:18.080Z,16.23
2022-10-31T18:13:45.141Z,15.90
2022-10-31T18:16:15.176Z,15.77
2022-10-31T18:18:43.075Z,15.75
2022-10-31T18:21:10.603Z,14.96
2022-10-31T18:23:37.746Z,15.90
2022-10-31T18:26:05.316Z,15.78
2022-10-31T18:28:32.653Z,15.19
2022-10-31T18:31:00.661Z,15.02
2022-10-31T18:33:28.022Z,15.52
2022-10-31T18:35:55.550Z,15.50
2022-10-31T18:38:42.318Z,15.69
2022-10-31T18:41:45.354Z,15.56
2022-10-31T18:44:33.453Z,15.34
2022-10-31T18:47:01.021Z,14.71
2022-10-31T18:49:32.967Z,14.31
2022-10-31T18:52:00.569Z,15.03
2022-10-31T18:54:47.335Z,14.97
2022-10-31T18:57:27.924Z,15.16
2022-10-31T18:59:55.111Z,15.42
2022-10-31T19:02:22.627Z,14.90
2022-10-31T19:04:49.820Z,15.15
2022-10-31T19:07:17.042Z,15.43
2022-10-31T19:09:44.155Z,15.45
2022-10-31T19:12:11.324Z,15.40
2022-10-31T19:14:58.345Z,15.58
2022-10-31T19:18:03.478Z,15.55
2022-10-31T19:20:44.028Z,15.23
2022-10-31T19:23:11.878Z,14.99
2022-10-31T19:25:39.488Z,15.15
2022-10-31T19:28:06.782Z,14.81
2022-10-31T19:30:33.923Z,14.99
2022-10-31T19:33:21.933Z,14.71
2022-10-31T19:36:23.390Z,14.21
2022-10-31T19:39:12.595Z,14.29
2022-10-31T19:41:40.312Z,14.08
2022-10-31T19:44:11.888Z,14.16
2022-10-31T19:46:53.523Z,14.25
2022-10-31T19:49:24.815Z,14.08
2022-10-31T19:51:52.407Z,13.88
2022-10-31T19:54:39.372Z,13.54
2022-10-31T20:00:44.382Z,14.19
2022-10-31T20:03:11.825Z,14.34
2022-10-31T20:05:59.335Z,14.41
2022-10-31T20:08:39.929Z,14.41
2022-10-31T20:11:09.903Z,14.47
2022-10-31T20:13:57.311Z,14.48
2022-10-31T20:16:38.282Z,13.95
2022-10-31T20:19:05.891Z,13.97
2022-10-31T20:21:37.563Z,13.85
2022-10-31T20:24:18.260Z,14.45
2022-10-31T20:26:45.386Z,14.32
2022-10-31T20:29:16.686Z,14.39
2022-10-31T20:32:04.568Z,13.59
2022-10-31T20:35:05.343Z,14.12
2022-10-31T20:37:54.514Z,13.65
2022-10-31T20:40:21.651Z,13.50
2022-10-31T20:42:49.587Z,12.89
2022-10-31T20:45:29.416Z,13.52
2022-10-31T20:47:59.237Z,13.27
2022-10-31T20:50:47.091Z,12.87
2022-10-31T20:53:47.430Z,12.82
2022-10-31T20:56:39.066Z,13.35
2022-10-31T20:59:07.385Z,13.08
2022-10-31T21:01:36.778Z,13.01
2022-10-31T21:04:05.037Z,13.21
2022-10-31T21:06:55.361Z,13.21
2022-10-31T21:09:36.025Z,12.98
2022-10-31T21:12:04.384Z,13.23
2022-10-31T21:14:51.372Z,13.28
2022-10-31T21:17:32.225Z,13.60
2022-10-31T21:19:59.585Z,13.41
2022-10-31T21:22:46.370Z,13.12
2022-10-31T21:25:34.323Z,13.03
2022-10-31T21:28:25.545Z,12.94
2022-10-31T21:31:13.101Z,13.18
2022-10-31T21:34:00.399Z,13.31
2022-10-31T21:37:01.398Z,13.23
2022-10-31T21:39:43.731Z,12.76
2022-10-31T21:42:35.362Z,13.01
2022-10-31T21:45:36.408Z,13.05
2022-10-31T21:48:17.005Z,13.08
2022-10-31T21:50:43.960Z,12.86
2022-10-31T21:53:49.465Z,13.12
2022-10-31T21:56:51.407Z,12.74
2022-10-31T21:59:32.051Z,12.22
2022-10-31T22:02:00.903Z,12.98
2022-10-31T22:04:28.877Z,12.79
2022-10-31T22:06:56.019Z,12.37
2022-10-31T22:09:23.777Z,13.01
2022-10-31T22:11:51.389Z,12.85
2022-10-31T22:14:18.472Z,12.63
2022-10-31T22:16:45.574Z,12.77
2022-10-31T22:19:14.272Z,13.28
2022-10-31T22:21:43.967Z,13.22
2022-10-31T22:24:11.900Z,12.90
2022-10-31T22:26:39.915Z,12.90
2022-10-31T22:29:11.562Z,13.07
2022-10-31T22:31:41.398Z,13.06
2022-10-31T22:34:30.370Z,12.67
2022-10-31T22:37:31.437Z,12.32
2022-10-31T22:40:12.853Z,12.66
2022-10-31T22:42:39.701Z,12.62
2022-10-31T22:45:07.605Z,12.59
2022-10-31T22:47:34.575Z,12.12
2022-10-31T22:50:01.563Z,12.27
2022-10-31T22:52:48.442Z,12.37
2022-10-31T22:55:49.582Z,11.87
2022-10-31T22:58:30.414Z,12.36
2022-10-31T23:01:25.483Z,11.99
2022-10-31T23:04:06.058Z,12.15
2022-10-31T23:06:33.587Z,12.13
2022-10-31T23:09:03.243Z,12.30
2022-10-31T23:11:35.013Z,12.28
2022-10-31T23:14:29.444Z,12.11
2022-10-31T23:17:17.639Z,12.11
2022-10-31T23:19:45.897Z,12.30
2022-10-31T23:22:13.122Z,12.30
2022-10-31T23:24:42.711Z,12.34
2022-10-31T23:27:33.405Z,12.43
2022-10-31T23:30:19.757Z,12.21
2022-10-31T23:32:46.641Z,12.55
2022-10-31T23:35:13.487Z,12.83
2022-10-31T23:37:40.435Z,12.57
2022-10-31T23:40:08.859Z,12.51
2022-10-31T23:42:36.012Z,12.36
2022-10-31T23:45:23.591Z,12.14
2022-10-31T23:48:24.463Z,12.28
2022-10-31T23:51:05.179Z,12.23
2022-10-31T23:53:52.461Z,12.05
2022-10-31T23:56:33.127Z,12.11
2022-10-31T23:59:00.202Z,11.81
